createdAt,value
2023-03-02T00:00:50.802Z,1027.8
2023-03-02T00:01:50.788Z,1027.84
2023-03-02T00:02:50.829Z,1027.83
2023-03-02T00:03:50.856Z,1027.8
2023-03-02T00:04:50.802Z,1027.79
2023-03-02T00:05:50.808Z,1027.75
2023-03-02T00:06:50.802Z,1027.75
2023-03-02T00:07:50.801Z,1027.75
2023-03-02T00:08:50.815Z,1027.75
2023-03-02T00:09:50.806Z,1027.71
2023-03-02T00:10:50.804Z,1027.71
2023-03-02T00:11:50.804Z,1027.71
2023-03-02T00:12:50.800Z,1027.67
2023-03-02T00:13:50.820Z,1027.69
2023-03-02T00:14:50.804Z,1027.64
2023-03-02T00:15:50.845Z,1027.64
2023-03-02T00:16:50.819Z,1027.64
2023-03-02T00:17:50.812Z,1027.62
2023-03-02T00:18:50.804Z,1027.59
2023-03-02T00:19:50.808Z,1027.59
2023-03-02T00:20:50.797Z,1027.56
2023-03-02T00:21:50.795Z,1027.57
2023-03-02T00:22:50.784Z,1027.58
2023-03-02T00:23:50.817Z,1027.61
2023-03-02T00:24:50.808Z,1027.62
2023-03-02T00:25:50.792Z,1027.6
2023-03-02T00:26:50.798Z,1027.62
2023-03-02T00:27:50.802Z,1027.66
2023-03-02T00:28:50.812Z,1027.66
2023-03-02T00:29:50.812Z,1027.68
2023-03-02T00:30:50.808Z,1027.67
2023-03-02T00:31:50.996Z,1027.65
2023-03-02T00:32:50.794Z,1027.67
2023-03-02T00:33:50.837Z,1027.69
2023-03-02T00:34:50.901Z,1027.65
2023-03-02T00:35:50.849Z,1027.67
2023-03-02T00:36:50.797Z,1027.64
2023-03-02T00:37:50.795Z,1027.66
2023-03-02T00:38:50.816Z,1027.62
2023-03-02T00:39:50.798Z,1027.61
2023-03-02T00:40:50.803Z,1027.64
2023-03-02T00:41:50.840Z,1027.6
2023-03-02T00:42:50.808Z,1027.59
2023-03-02T00:43:50.804Z,1027.62
2023-03-02T00:44:50.822Z,1027.6
2023-03-02T00:45:50.828Z,1027.59
2023-03-02T00:46:50.919Z,1027.57
2023-03-02T00:47:50.799Z,1027.57
2023-03-02T00:48:50.816Z,1027.54
2023-03-02T00:49:50.809Z,1027.6
2023-03-02T00:50:50.812Z,1027.62
2023-03-02T00:51:50.796Z,1027.57
2023-03-02T00:52:50.794Z,1027.57
2023-03-02T00:53:50.816Z,1027.6
2023-03-02T00:54:50.799Z,1027.57
2023-03-02T00:55:50.793Z,1027.59
2023-03-02T00:56:50.793Z,1027.55
2023-03-02T00:57:50.798Z,1027.53
2023-03-02T00:58:50.854Z,1027.48
2023-03-02T00:59:50.801Z,1027.46
2023-03-02T01:00:50.825Z,1027.45
2023-03-02T01:01:50.799Z,1027.48
2023-03-02T01:02:50.938Z,1027.47
2023-03-02T01:03:50.816Z,1027.44
2023-03-02T01:04:50.805Z,1027.49
2023-03-02T01:05:50.805Z,1027.38
2023-03-02T01:06:50.795Z,1027.44
2023-03-02T01:07:50.799Z,1027.41
2023-03-02T01:08:50.818Z,1027.41
2023-03-02T01:09:50.814Z,1027.42
2023-03-02T01:10:52.158Z,1027.45
2023-03-02T01:11:50.806Z,1027.46
2023-03-02T01:12:50.791Z,1027.45
2023-03-02T01:13:50.822Z,1027.42
2023-03-02T01:14:50.901Z,1027.46
2023-03-02T01:15:50.841Z,1027.42
2023-03-02T01:16:50.807Z,1027.38
2023-03-02T01:17:50.802Z,1027.33
2023-03-02T01:18:50.818Z,1027.26
2023-03-02T01:19:50.814Z,1027.21
2023-03-02T01:20:50.809Z,1027.21
2023-03-02T01:21:50.806Z,1027.2
2023-03-02T01:22:50.817Z,1027.15
2023-03-02T01:23:50.818Z,1027.17
2023-03-02T01:24:50.831Z,1027.2
2023-03-02T01:25:50.793Z,1027.12
2023-03-02T01:26:50.800Z,1027.11
2023-03-02T01:27:50.804Z,1027.1
2023-03-02T01:28:51.044Z,1027.09
2023-03-02T01:29:50.808Z,1027.1
2023-03-02T01:30:50.817Z,1027.1
2023-03-02T01:31:50.964Z,1027.08
2023-03-02T01:32:50.806Z,1027.07
2023-03-02T01:33:50.832Z,1027.08
2023-03-02T01:34:50.814Z,1027.13
2023-03-02T01:35:50.856Z,1027.09
2023-03-02T01:36:50.822Z,1027.12
2023-03-02T01:37:50.815Z,1027.15
2023-03-02T01:38:50.899Z,1027.14
2023-03-02T01:39:50.814Z,1027.13
2023-03-02T01:40:50.806Z,1027.16
2023-03-02T01:41:50.810Z,1027.14
2023-03-02T01:42:50.820Z,1027.11
2023-03-02T01:43:50.815Z,1027.09
2023-03-02T01:44:50.826Z,1027.1
2023-03-02T01:45:50.868Z,1027.07
2023-03-02T01:46:50.818Z,1027.06
2023-03-02T01:47:50.812Z,1027.07
2023-03-02T01:48:50.816Z,1027.06
2023-03-02T01:49:50.802Z,1027.07
2023-03-02T01:50:50.804Z,1027.05
2023-03-02T01:51:50.799Z,1027.03
2023-03-02T01:52:50.818Z,1027.05
2023-03-02T01:53:50.827Z,1027.07
2023-03-02T01:54:50.810Z,1027.05
2023-03-02T01:55:50.819Z,1027.01
2023-03-02T01:56:50.812Z,1027.05
2023-03-02T01:57:50.823Z,1027.01
2023-03-02T01:58:50.819Z,1026.98
2023-03-02T01:59:50.805Z,1026.97
2023-03-02T02:00:50.857Z,1026.97
2023-03-02T02:01:50.844Z,1026.97
2023-03-02T02:02:50.817Z,1026.98
2023-03-02T02:03:50.890Z,1026.96
2023-03-02T02:04:50.812Z,1026.97
2023-03-02T02:05:50.810Z,1026.94
2023-03-02T02:06:50.810Z,1026.97
2023-03-02T02:07:50.821Z,1026.95
2023-03-02T02:08:50.820Z,1026.95
2023-03-02T02:09:50.815Z,1026.98
2023-03-02T02:10:50.797Z,1026.91
2023-03-02T02:11:50.823Z,1026.94
2023-03-02T02:12:50.801Z,1026.88
2023-03-02T02:13:50.817Z,1026.87
2023-03-02T02:14:50.806Z,1026.88
2023-03-02T02:15:50.823Z,1026.91
2023-03-02T02:16:50.882Z,1026.89
2023-03-02T02:17:50.819Z,1026.88
2023-03-02T02:18:50.830Z,1026.88
2023-03-02T02:19:50.799Z,1026.89
2023-03-02T02:20:50.805Z,1026.89
2023-03-02T02:21:50.806Z,1026.79
2023-03-02T02:22:50.815Z,1026.85
2023-03-02T02:23:50.815Z,1026.77
2023-03-02T02:24:50.801Z,1026.74
2023-03-02T02:25:50.806Z,1026.79
2023-03-02T02:29:50.817Z,1026.71
2023-03-02T02:30:50.819Z,1026.74
2023-03-02T02:31:50.931Z,1026.72
2023-03-02T02:32:50.934Z,1026.7
2023-03-02T02:33:50.822Z,1026.71
2023-03-02T02:34:50.822Z,1026.7
2023-03-02T02:35:50.859Z,1026.66
2023-03-02T02:36:50.814Z,1026.68
2023-03-02T02:37:50.800Z,1026.69
2023-03-02T02:38:50.809Z,1026.66
2023-03-02T02:39:50.819Z,1026.67
2023-03-02T02:40:50.811Z,1026.7
2023-03-02T02:41:50.816Z,1026.71
2023-03-02T02:42:50.806Z,1026.69
2023-03-02T02:43:50.804Z,1026.7
2023-03-02T02:44:50.826Z,1026.71
2023-03-02T02:45:50.861Z,1026.69
2023-03-02T02:46:50.807Z,1026.62
2023-03-02T02:47:50.823Z,1026.69
2023-03-02T02:48:50.831Z,1026.64
2023-03-02T02:49:50.825Z,1026.62
2023-03-02T02:50:50.805Z,1026.6
2023-03-02T02:51:50.800Z,1026.6
2023-03-02T02:52:50.805Z,1026.61
2023-03-02T02:53:50.809Z,1026.62
2023-03-02T02:54:50.814Z,1026.6
2023-03-02T02:55:50.794Z,1026.6
2023-03-02T02:56:50.804Z,1026.57
2023-03-02T02:57:50.814Z,1026.53
2023-03-02T02:58:50.815Z,1026.61
2023-03-02T02:59:50.837Z,1026.57
2023-03-02T03:00:50.893Z,1026.52
2023-03-02T03:01:50.810Z,1026.52
2023-03-02T03:02:50.802Z,1026.48
2023-03-02T03:03:50.811Z,1026.46
2023-03-02T03:04:50.826Z,1026.45
2023-03-02T03:05:50.808Z,1026.39
2023-03-02T03:06:50.805Z,1026.41
2023-03-02T03:07:50.816Z,1026.39
2023-03-02T03:08:50.805Z,1026.39
2023-03-02T03:09:50.914Z,1026.38
2023-03-02T03:10:50.822Z,1026.42
2023-03-02T03:11:50.802Z,1026.44
2023-03-02T03:12:50.805Z,1026.48
2023-03-02T03:13:50.799Z,1026.43
2023-03-02T03:14:50.819Z,1026.35
2023-03-02T03:15:50.821Z,1026.33
2023-03-02T03:16:50.881Z,1026.35
2023-03-02T03:17:50.807Z,1026.36
2023-03-02T03:18:50.810Z,1026.35
2023-03-02T03:19:50.838Z,1026.39
2023-03-02T03:20:50.809Z,1026.43
2023-03-02T03:21:50.799Z,1026.47
2023-03-02T03:22:50.800Z,1026.45
2023-03-02T03:23:50.801Z,1026.44
2023-03-02T03:24:50.820Z,1026.45
2023-03-02T03:25:50.811Z,1026.42
2023-03-02T03:26:50.808Z,1026.47
2023-03-02T03:27:50.799Z,1026.43
2023-03-02T03:28:50.803Z,1026.48
2023-03-02T03:29:50.812Z,1026.47
2023-03-02T03:30:50.844Z,1026.46
2023-03-02T03:31:50.878Z,1026.48
2023-03-02T03:32:50.798Z,1026.46
2023-03-02T03:33:50.804Z,1026.47
2023-03-02T03:34:50.809Z,1026.44
2023-03-02T03:35:50.853Z,1026.41
2023-03-02T03:36:50.808Z,1026.43
2023-03-02T03:37:50.795Z,1026.44
2023-03-02T03:38:50.816Z,1026.48
2023-03-02T03:39:50.843Z,1026.48
2023-03-02T03:40:50.807Z,1026.5
2023-03-02T03:41:50.807Z,1026.52
2023-03-02T03:42:50.860Z,1026.61
2023-03-02T03:43:50.796Z,1026.64
2023-03-02T03:44:50.801Z,1026.61
2023-03-02T03:45:50.857Z,1026.67
2023-03-02T03:46:50.800Z,1026.69
2023-03-02T03:47:50.807Z,1026.72
2023-03-02T03:48:50.789Z,1026.71
2023-03-02T03:49:50.859Z,1026.7
2023-03-02T03:50:50.802Z,1026.7
2023-03-02T03:51:50.797Z,1026.69
2023-03-02T03:52:50.796Z,1026.71
2023-03-02T03:53:50.791Z,1026.72
2023-03-02T03:54:50.827Z,1026.69
2023-03-02T03:55:50.793Z,1026.71
2023-03-02T03:56:50.794Z,1026.71
2023-03-02T03:57:50.794Z,1026.71
2023-03-02T03:58:50.854Z,1026.72
2023-03-02T03:59:50.824Z,1026.71
2023-03-02T04:00:50.803Z,1026.69
2023-03-02T04:01:50.859Z,1026.71
2023-03-02T04:02:50.918Z,1026.68
2023-03-02T04:03:50.794Z,1026.71
2023-03-02T04:04:50.804Z,1026.67
2023-03-02T04:05:50.795Z,1026.68
2023-03-02T04:06:50.804Z,1026.65
2023-03-02T04:07:50.825Z,1026.66
2023-03-02T04:08:50.798Z,1026.66
2023-03-02T04:09:50.804Z,1026.67
2023-03-02T04:10:50.802Z,1026.65
2023-03-02T04:11:50.802Z,1026.69
2023-03-02T04:12:50.803Z,1026.64
2023-03-02T04:13:50.793Z,1026.61
2023-03-02T04:14:50.805Z,1026.61
2023-03-02T04:15:50.844Z,1026.61
2023-03-02T04:16:50.806Z,1026.62
2023-03-02T04:17:50.790Z,1026.61
2023-03-02T04:18:50.791Z,1026.59
2023-03-02T04:19:50.794Z,1026.6
2023-03-02T04:20:50.793Z,1026.6
2023-03-02T04:21:50.792Z,1026.6
2023-03-02T04:22:50.795Z,1026.59
2023-03-02T04:23:50.789Z,1026.6
2023-03-02T04:24:50.812Z,1026.59
2023-03-02T04:25:50.803Z,1026.57
2023-03-02T04:26:50.803Z,1026.57
2023-03-02T04:27:50.809Z,1026.54
2023-03-02T04:28:50.951Z,1026.59
2023-03-02T04:29:50.807Z,1026.55
2023-03-02T04:30:50.891Z,1026.56
2023-03-02T04:31:50.888Z,1026.55
2023-03-02T04:32:50.798Z,1026.59
2023-03-02T04:33:50.801Z,1026.59
2023-03-02T04:34:50.826Z,1026.56
2023-03-02T04:35:50.887Z,1026.55
2023-03-02T04:36:50.800Z,1026.52
2023-03-02T04:37:50.797Z,1026.52
2023-03-02T04:38:50.801Z,1026.51
2023-03-02T04:39:50.811Z,1026.51
2023-03-02T04:40:50.808Z,1026.5
2023-03-02T04:41:50.823Z,1026.51
2023-03-02T04:42:50.815Z,1026.48
2023-03-02T04:43:50.802Z,1026.46
2023-03-02T04:44:50.813Z,1026.48
2023-03-02T04:45:50.830Z,1026.52
2023-03-02T04:46:50.842Z,1026.49
2023-03-02T04:47:50.814Z,1026.5
2023-03-02T04:48:50.803Z,1026.47
2023-03-02T04:49:50.818Z,1026.49
2023-03-02T04:50:50.825Z,1026.49
2023-03-02T04:51:50.839Z,1026.5
2023-03-02T04:52:50.806Z,1026.45
2023-03-02T04:53:50.813Z,1026.46
2023-03-02T04:54:50.856Z,1026.47
2023-03-02T04:55:50.803Z,1026.45
2023-03-02T04:56:50.815Z,1026.4
2023-03-02T04:57:50.808Z,1026.44
2023-03-02T04:58:50.802Z,1026.43
2023-03-02T04:59:51.009Z,1026.43
2023-03-02T05:00:50.844Z,1026.46
2023-03-02T05:01:50.879Z,1026.45
2023-03-02T05:02:50.810Z,1026.38
2023-03-02T05:03:50.809Z,1026.4
2023-03-02T05:04:50.875Z,1026.39
2023-03-02T05:05:50.803Z,1026.4
2023-03-02T05:06:50.809Z,1026.41
2023-03-02T05:07:50.815Z,1026.4
2023-03-02T05:08:50.810Z,1026.4
2023-03-02T05:09:50.821Z,1026.4
2023-03-02T05:10:50.805Z,1026.35
2023-03-02T05:11:50.804Z,1026.36
2023-03-02T05:12:50.811Z,1026.32
2023-03-02T05:13:50.811Z,1026.36
2023-03-02T05:14:50.828Z,1026.37
2023-03-02T05:15:50.914Z,1026.37
2023-03-02T05:16:50.805Z,1026.4
2023-03-02T05:17:50.803Z,1026.4
2023-03-02T05:18:50.806Z,1026.38
2023-03-02T05:19:50.815Z,1026.42
2023-03-02T05:20:50.806Z,1026.45
2023-03-02T05:21:50.817Z,1026.43
2023-03-02T05:22:50.805Z,1026.42
2023-03-02T05:23:50.813Z,1026.44
2023-03-02T05:24:50.824Z,1026.43
2023-03-02T05:25:50.813Z,1026.45
2023-03-02T05:26:50.806Z,1026.46
2023-03-02T05:27:50.823Z,1026.41
2023-03-02T05:28:53.660Z,1026.41
2023-03-02T05:29:50.821Z,1026.4
2023-03-02T05:30:50.876Z,1026.38
2023-03-02T05:31:50.850Z,1026.36
2023-03-02T05:32:50.812Z,1026.39
2023-03-02T05:33:50.801Z,1026.35
2023-03-02T05:34:50.813Z,1026.32
2023-03-02T05:35:50.877Z,1026.3
2023-03-02T05:36:50.809Z,1026.33
2023-03-02T05:37:50.823Z,1026.35
2023-03-02T05:38:50.804Z,1026.4
2023-03-02T05:39:50.840Z,1026.36
2023-03-02T05:40:50.804Z,1026.35
2023-03-02T05:41:50.816Z,1026.32
2023-03-02T05:42:50.814Z,1026.33
2023-03-02T05:43:50.817Z,1026.26
2023-03-02T05:44:50.813Z,1026.3
2023-03-02T05:45:50.828Z,1026.29
2023-03-02T05:46:50.859Z,1026.27
2023-03-02T05:47:50.811Z,1026.3
2023-03-02T05:48:50.804Z,1026.29
2023-03-02T05:49:50.821Z,1026.24
2023-03-02T05:50:50.813Z,1026.29
2023-03-02T05:51:50.810Z,1026.28
2023-03-02T05:52:50.879Z,1026.26
2023-03-02T05:53:50.813Z,1026.22
2023-03-02T05:54:50.817Z,1026.23
2023-03-02T05:55:50.827Z,1026.21
2023-03-02T05:56:50.805Z,1026.21
2023-03-02T05:57:50.807Z,1026.2
2023-03-02T05:58:50.823Z,1026.21
2023-03-02T05:59:50.839Z,1026.22
2023-03-02T06:00:50.822Z,1026.23
2023-03-02T06:01:50.869Z,1026.21
2023-03-02T06:02:50.915Z,1026.22
2023-03-02T06:03:50.806Z,1026.24
2023-03-02T06:04:50.826Z,1026.23
2023-03-02T06:05:50.859Z,1026.15
2023-03-02T06:06:50.821Z,1026.13
2023-03-02T06:07:50.816Z,1026.17
2023-03-02T06:08:50.800Z,1026.17
2023-03-02T06:09:50.826Z,1026.17
2023-03-02T06:10:50.971Z,1026.19
2023-03-02T06:11:50.803Z,1026.17
2023-03-02T06:12:50.832Z,1026.18
2023-03-02T06:13:50.806Z,1026.19
2023-03-02T06:14:50.832Z,1026.21
2023-03-02T06:15:50.818Z,1026.19
2023-03-02T06:16:50.886Z,1026.2
2023-03-02T06:17:50.807Z,1026.29
2023-03-02T06:18:50.804Z,1026.26
2023-03-02T06:19:50.816Z,1026.25
2023-03-02T06:20:50.797Z,1026.25
2023-03-02T06:21:50.807Z,1026.22
2023-03-02T06:22:50.814Z,1026.22
2023-03-02T06:23:50.798Z,1026.21
2023-03-02T06:24:50.817Z,1026.22
2023-03-02T06:25:50.806Z,1026.17
2023-03-02T06:26:50.809Z,1026.21
2023-03-02T06:27:50.795Z,1026.21
2023-03-02T06:28:53.471Z,1026.2
2023-03-02T06:29:51.076Z,1026.2
2023-03-02T06:30:50.828Z,1026.13
2023-03-02T06:31:50.923Z,1026.17
2023-03-02T06:32:50.972Z,1026.16
2023-03-02T06:33:50.803Z,1026.15
2023-03-02T06:34:50.847Z,1026.12
2023-03-02T06:35:50.980Z,1026.13
2023-03-02T06:36:50.812Z,1026.08
2023-03-02T06:37:50.813Z,1026.12
2023-03-02T06:38:50.806Z,1026.06
2023-03-02T06:39:50.837Z,1026.14
2023-03-02T06:40:50.809Z,1026.08
2023-03-02T06:41:50.802Z,1026.07
2023-03-02T06:42:50.871Z,1026.09
2023-03-02T06:43:50.821Z,1026.16
2023-03-02T06:44:50.845Z,1026.16
2023-03-02T06:45:50.901Z,1026.14
2023-03-02T06:46:50.801Z,1026.13
2023-03-02T06:47:50.808Z,1026.09
2023-03-02T06:48:50.817Z,1026.06
2023-03-02T06:49:50.833Z,1026.07
2023-03-02T06:50:50.796Z,1026.07
2023-03-02T06:51:50.803Z,1026.06
2023-03-02T06:52:50.806Z,1026.08
2023-03-02T06:53:50.808Z,1026.09
2023-03-02T06:54:50.822Z,1026.12
2023-03-02T06:55:50.827Z,1026.12
2023-03-02T06:56:50.799Z,1026.07
2023-03-02T06:57:50.814Z,1026.08
2023-03-02T06:58:50.805Z,1026.13
2023-03-02T06:59:50.847Z,1026.1
2023-03-02T07:00:50.864Z,1026.1
2023-03-02T07:01:50.812Z,1026.09
2023-03-02T07:02:50.806Z,1026.13
2023-03-02T07:03:50.837Z,1026.1
2023-03-02T07:04:50.816Z,1026.05
2023-03-02T07:05:50.912Z,1026.09
2023-03-02T07:06:50.802Z,1026.09
2023-03-02T07:07:50.808Z,1026.1
2023-03-02T07:08:50.802Z,1026.1
2023-03-02T07:09:50.819Z,1026.04
2023-03-02T07:10:50.799Z,1026.06
2023-03-02T07:11:50.819Z,1026.03
2023-03-02T07:12:50.806Z,1026
2023-03-02T07:13:50.799Z,1026.02
2023-03-02T07:14:50.835Z,1026
2023-03-02T07:15:50.811Z,1025.97
2023-03-02T07:16:50.868Z,1025.97
2023-03-02T07:17:50.807Z,1025.98
2023-03-02T07:18:50.800Z,1025.99
2023-03-02T07:19:50.825Z,1025.97
2023-03-02T07:20:50.799Z,1025.97
2023-03-02T07:21:50.813Z,1025.96
2023-03-02T07:22:50.823Z,1025.97
2023-03-02T07:23:50.797Z,1025.96
2023-03-02T07:24:50.821Z,1025.96
2023-03-02T07:25:50.804Z,1025.95
2023-03-02T07:26:50.808Z,1025.93
2023-03-02T07:27:50.794Z,1026.01
2023-03-02T07:28:50.805Z,1025.97
2023-03-02T07:29:50.812Z,1025.95
2023-03-02T07:30:50.890Z,1025.94
2023-03-02T07:31:50.840Z,1025.96
2023-03-02T07:32:50.794Z,1025.97
2023-03-02T07:33:50.794Z,1025.92
2023-03-02T07:34:50.826Z,1025.9
2023-03-02T07:35:50.921Z,1025.94
2023-03-02T07:36:50.820Z,1025.92
2023-03-02T07:37:50.797Z,1025.87
2023-03-02T07:38:50.792Z,1025.87
2023-03-02T07:39:50.819Z,1025.85
2023-03-02T07:40:50.804Z,1025.77
2023-03-02T07:41:50.804Z,1025.77
2023-03-02T07:42:50.802Z,1025.74
2023-03-02T07:43:50.816Z,1025.77
2023-03-02T07:44:50.814Z,1025.73
2023-03-02T07:45:50.820Z,1025.75
2023-03-02T07:46:50.841Z,1025.77
2023-03-02T07:47:50.801Z,1025.77
2023-03-02T07:48:50.798Z,1025.71
2023-03-02T07:49:50.810Z,1025.72
2023-03-02T07:50:50.811Z,1025.69
2023-03-02T07:51:50.815Z,1025.67
2023-03-02T07:52:50.816Z,1025.68
2023-03-02T07:53:50.813Z,1025.61
2023-03-02T07:54:50.829Z,1025.61
2023-03-02T07:55:50.904Z,1025.6
2023-03-02T07:56:50.819Z,1025.59
2023-03-02T07:57:50.810Z,1025.6
2023-03-02T07:58:50.810Z,1025.55
2023-03-02T07:59:50.811Z,1025.58
2023-03-02T08:00:50.847Z,1025.52
2023-03-02T08:01:50.910Z,1025.53
2023-03-02T08:02:50.858Z,1025.52
2023-03-02T08:03:50.801Z,1025.51
2023-03-02T08:04:50.822Z,1025.53
2023-03-02T08:05:50.794Z,1025.49
2023-03-02T08:06:50.808Z,1025.48
2023-03-02T08:07:50.799Z,1025.48
2023-03-02T08:08:50.810Z,1025.48
2023-03-02T08:09:50.813Z,1025.43
2023-03-02T08:10:50.805Z,1025.43
2023-03-02T08:11:50.800Z,1025.4
2023-03-02T08:12:50.804Z,1025.39
2023-03-02T08:13:50.806Z,1025.44
2023-03-02T08:14:50.821Z,1025.39
2023-03-02T08:15:50.834Z,1025.44
2023-03-02T08:16:50.803Z,1025.39
2023-03-02T08:17:50.810Z,1025.42
2023-03-02T08:18:50.834Z,1025.44
2023-03-02T08:19:50.818Z,1025.46
2023-03-02T08:20:50.807Z,1025.46
2023-03-02T08:21:50.807Z,1025.44
2023-03-02T08:22:50.806Z,1025.48
2023-03-02T08:23:50.910Z,1025.47
2023-03-02T08:24:50.815Z,1025.49
2023-03-02T08:25:50.807Z,1025.52
2023-03-02T08:26:50.812Z,1025.47
2023-03-02T08:27:50.795Z,1025.46
2023-03-02T08:28:50.807Z,1025.48
2023-03-02T08:29:50.825Z,1025.48
2023-03-02T08:30:50.818Z,1025.47
2023-03-02T08:31:51.035Z,1025.52
2023-03-02T08:32:50.892Z,1025.5
2023-03-02T08:33:50.807Z,1025.52
2023-03-02T08:34:50.825Z,1025.49
2023-03-02T08:35:52.805Z,1025.49
2023-03-02T08:36:50.823Z,1025.48
2023-03-02T08:37:50.807Z,1025.51
2023-03-02T08:38:50.816Z,1025.48
2023-03-02T08:39:50.828Z,1025.5
2023-03-02T08:40:50.820Z,1025.53
2023-03-02T08:41:50.808Z,1025.54
2023-03-02T08:42:50.809Z,1025.57
2023-03-02T08:43:50.801Z,1025.57
2023-03-02T08:44:50.821Z,1025.59
2023-03-02T08:45:50.857Z,1025.56
2023-03-02T08:46:50.811Z,1025.56
2023-03-02T08:47:50.815Z,1025.58
2023-03-02T08:48:50.816Z,1025.52
2023-03-02T08:49:50.820Z,1025.51
2023-03-02T08:50:50.807Z,1025.48
2023-03-02T08:51:50.795Z,1025.46
2023-03-02T08:52:50.800Z,1025.49
2023-03-02T08:53:50.790Z,1025.54
2023-03-02T08:54:50.853Z,1025.48
2023-03-02T08:55:50.787Z,1025.46
2023-03-02T08:56:50.788Z,1025.48
2023-03-02T08:57:50.791Z,1025.42
2023-03-02T08:58:50.804Z,1025.46
2023-03-02T08:59:50.813Z,1025.39
2023-03-02T09:00:50.853Z,1025.42
2023-03-02T09:01:50.809Z,1025.44
2023-03-02T09:02:50.804Z,1025.43
2023-03-02T09:03:50.798Z,1025.42
2023-03-02T09:04:50.884Z,1025.38
2023-03-02T09:05:50.805Z,1025.36
2023-03-02T09:06:50.795Z,1025.31
2023-03-02T09:07:50.800Z,1025.34
2023-03-02T09:08:50.817Z,1025.34
2023-03-02T09:09:50.810Z,1025.31
2023-03-02T09:10:50.805Z,1025.32
2023-03-02T09:11:50.807Z,1025.29
2023-03-02T09:12:50.798Z,1025.3
2023-03-02T09:13:50.821Z,1025.28
2023-03-02T09:14:50.818Z,1025.31
2023-03-02T09:15:50.821Z,1025.28
2023-03-02T09:16:50.882Z,1025.32
2023-03-02T09:17:50.805Z,1025.24
2023-03-02T09:18:50.803Z,1025.23
2023-03-02T09:19:50.834Z,1025.22
2023-03-02T09:20:50.831Z,1025.22
2023-03-02T09:21:50.817Z,1025.19
2023-03-02T09:22:50.830Z,1025.16
2023-03-02T09:23:50.796Z,1025.19
2023-03-02T09:24:50.820Z,1025.2
2023-03-02T09:25:50.810Z,1025.2
2023-03-02T09:26:50.803Z,1025.19
2023-03-02T09:27:50.805Z,1025.24
2023-03-02T09:28:50.807Z,1025.21
2023-03-02T09:29:50.812Z,1025.21
2023-03-02T09:30:50.814Z,1025.2
2023-03-02T09:31:50.931Z,1025.23
2023-03-02T09:32:50.954Z,1025.19
2023-03-02T09:33:50.807Z,1025.2
2023-03-02T09:34:50.897Z,1025.2
2023-03-02T09:35:50.808Z,1025.19
2023-03-02T09:36:50.807Z,1025.22
2023-03-02T09:37:50.835Z,1025.24
2023-03-02T09:38:50.821Z,1025.25
2023-03-02T09:39:50.848Z,1025.23
2023-03-02T09:40:50.799Z,1025.23
2023-03-02T09:41:50.799Z,1025.25
2023-03-02T09:42:50.804Z,1025.2
2023-03-02T09:43:50.816Z,1025.14
2023-03-02T09:44:50.808Z,1025.15
2023-03-02T09:45:50.884Z,1025.11
2023-03-02T09:46:50.800Z,1025.13
2023-03-02T09:47:50.814Z,1025.1
2023-03-02T09:48:50.810Z,1025.09
2023-03-02T09:49:50.819Z,1025.11
2023-03-02T09:50:50.813Z,1025.08
2023-03-02T09:51:50.792Z,1025.11
2023-03-02T09:52:50.797Z,1025.08
2023-03-02T09:53:50.888Z,1025.1
2023-03-02T09:54:50.819Z,1025.07
2023-03-02T09:55:50.820Z,1025.08
2023-03-02T09:56:50.838Z,1025.07
2023-03-02T09:57:50.808Z,1025.08
2023-03-02T09:58:50.805Z,1025.1
2023-03-02T09:59:50.829Z,1025.03
2023-03-02T10:00:50.839Z,1025.09
2023-03-02T10:01:50.826Z,1025.05
2023-03-02T10:02:50.863Z,1025.04
2023-03-02T10:03:50.923Z,1025.08
2023-03-02T10:04:50.861Z,1025.06
2023-03-02T10:05:50.802Z,1025.01
2023-03-02T10:06:50.805Z,1025.02
2023-03-02T10:07:50.807Z,1025.02
2023-03-02T10:08:50.821Z,1025.02
2023-03-02T10:09:50.827Z,1025.01
2023-03-02T10:10:50.802Z,1025.01
2023-03-02T10:11:50.809Z,1024.97
2023-03-02T10:12:50.815Z,1025.01
2023-03-02T10:13:50.842Z,1025
2023-03-02T10:14:50.813Z,1025.01
2023-03-02T10:15:50.851Z,1025.01
2023-03-02T10:16:50.816Z,1025.01
2023-03-02T10:17:50.811Z,1025.01
2023-03-02T10:18:50.834Z,1024.98
2023-03-02T10:19:50.813Z,1024.99
2023-03-02T10:20:50.810Z,1025.02
2023-03-02T10:21:50.838Z,1025
2023-03-02T10:22:50.804Z,1025.04
2023-03-02T10:23:50.810Z,1025.06
2023-03-02T10:24:50.825Z,1025.05
2023-03-02T10:25:50.808Z,1025.06
2023-03-02T10:26:50.801Z,1025.04
2023-03-02T10:27:50.847Z,1025.07
2023-03-02T10:28:50.804Z,1025.11
2023-03-02T10:29:50.810Z,1025.05
2023-03-02T10:30:50.837Z,1025.09
2023-03-02T10:31:50.889Z,1025.09
2023-03-02T10:32:50.829Z,1025.07
2023-03-02T10:33:50.806Z,1025.06
2023-03-02T10:34:50.866Z,1025.06
2023-03-02T10:35:50.831Z,1025.07
2023-03-02T10:36:50.805Z,1025.04
2023-03-02T10:37:50.827Z,1025.04
2023-03-02T10:38:50.821Z,1025.04
2023-03-02T10:39:50.839Z,1025.04
2023-03-02T10:40:50.815Z,1025.02
2023-03-02T10:41:50.807Z,1025.01
2023-03-02T10:42:50.804Z,1025.01
2023-03-02T10:43:50.807Z,1025.02
2023-03-02T10:44:50.823Z,1025.05
2023-03-02T10:45:50.859Z,1025.03
2023-03-02T10:46:50.800Z,1025.01
2023-03-02T10:47:50.798Z,1024.97
2023-03-02T10:48:50.799Z,1024.99
2023-03-02T10:49:50.839Z,1024.96
2023-03-02T10:50:50.804Z,1024.96
2023-03-02T10:51:50.804Z,1024.98
2023-03-02T10:52:59.581Z,1024.97
2023-03-02T10:53:50.804Z,1025
2023-03-02T10:54:50.806Z,1024.98
2023-03-02T10:55:50.813Z,1024.92
2023-03-02T10:56:50.806Z,1024.92
2023-03-02T10:57:50.831Z,1024.91
2023-03-02T10:58:50.797Z,1024.9
2023-03-02T10:59:50.826Z,1024.9
2023-03-02T11:00:50.817Z,1024.89
2023-03-02T11:01:50.880Z,1024.89
2023-03-02T11:02:50.836Z,1024.87
2023-03-02T11:03:50.795Z,1024.87
2023-03-02T11:04:50.856Z,1024.84
2023-03-02T11:05:50.810Z,1024.83
2023-03-02T11:06:51.341Z,1024.82
2023-03-02T11:07:50.831Z,1024.82
2023-03-02T11:08:50.803Z,1024.82
2023-03-02T11:09:50.822Z,1024.84
2023-03-02T11:10:50.800Z,1024.8
2023-03-02T11:11:50.907Z,1024.76
2023-03-02T11:12:50.811Z,1024.8
2023-03-02T11:13:50.807Z,1024.77
2023-03-02T11:14:50.821Z,1024.74
2023-03-02T11:15:50.862Z,1024.71
2023-03-02T11:16:50.800Z,1024.74
2023-03-02T11:17:50.805Z,1024.7
2023-03-02T11:18:50.804Z,1024.7
2023-03-02T11:19:50.826Z,1024.68
2023-03-02T11:20:50.801Z,1024.7
2023-03-02T11:21:50.799Z,1024.68
2023-03-02T11:22:50.799Z,1024.67
2023-03-02T11:23:50.806Z,1024.64
2023-03-02T11:24:50.820Z,1024.65
2023-03-02T11:25:50.812Z,1024.58
2023-03-02T11:26:50.802Z,1024.58
2023-03-02T11:27:50.809Z,1024.55
2023-03-02T11:28:50.807Z,1024.56
2023-03-02T11:29:50.815Z,1024.57
2023-03-02T11:30:50.823Z,1024.58
2023-03-02T11:31:50.973Z,1024.58
2023-03-02T11:32:50.927Z,1024.58
2023-03-02T11:33:50.881Z,1024.55
2023-03-02T11:34:51.042Z,1024.56
2023-03-02T11:35:50.881Z,1024.53
2023-03-02T11:36:50.797Z,1024.54
2023-03-02T11:37:50.818Z,1024.5
2023-03-02T11:38:50.814Z,1024.46
2023-03-02T11:39:55.855Z,1024.45
2023-03-02T11:40:50.819Z,1024.45
2023-03-02T11:41:50.834Z,1024.4
2023-03-02T11:42:50.815Z,1024.41
2023-03-02T11:43:50.806Z,1024.38
2023-03-02T11:44:50.834Z,1024.36
2023-03-02T11:45:50.821Z,1024.36
2023-03-02T11:46:50.880Z,1024.32
2023-03-02T11:47:57.589Z,1024.31
2023-03-02T11:48:50.809Z,1024.27
2023-03-02T11:49:50.821Z,1024.2
2023-03-02T11:50:50.800Z,1024.23
2023-03-02T11:51:58.068Z,1024.22
2023-03-02T11:52:50.813Z,1024.2
2023-03-02T11:53:50.833Z,1024.13
2023-03-02T11:54:50.813Z,1024.16
2023-03-02T11:55:50.811Z,1024.13
2023-03-02T11:56:50.798Z,1024.11
2023-03-02T11:57:50.809Z,1024.11
2023-03-02T11:58:50.812Z,1024.13
2023-03-02T11:59:50.824Z,1024.07
2023-03-02T12:00:50.831Z,1024.08
2023-03-02T12:01:50.852Z,1024.07
2023-03-02T12:02:50.800Z,1024.01
2023-03-02T12:03:50.798Z,1023.95
2023-03-02T12:04:50.818Z,1023.94
2023-03-02T12:05:50.818Z,1023.95
2023-03-02T12:06:50.804Z,1023.96
2023-03-02T12:07:50.801Z,1023.93
2023-03-02T12:08:50.853Z,1023.93
2023-03-02T12:09:50.835Z,1023.91
2023-03-02T12:10:50.814Z,1023.95
2023-03-02T12:11:50.812Z,1023.92